sensor_id;sensor_type;location;lat;lon;timestamp;P1;durP1;ratioP1;P2;durP2;ratioP2
49962;SDS011;36180;57.678;11.910;2023-02-28T00:01:49;5.22;;;2.97;;
49962;SDS011;36180;57.678;11.910;2023-02-28T00:04:16;4.40;;;2.95;;
49962;SDS011;36180;57.678;11.910;2023-02-28T00:06:43;5.93;;;3.55;;
49962;SDS011;36180;57.678;11.910;2023-02-28T00:09:11;9.63;;;4.28;;
49962;SDS011;36180;57.678;11.910;2023-02-28T00:11:38;4.63;;;3.55;;
49962;SDS011;36180;57.678;11.910;2023-02-28T00:14:06;6.40;;;3.40;;
49962;SDS011;36180;57.678;11.910;2023-02-28T00:16:33;6.50;;;3.60;;
49962;SDS011;36180;57.678;11.910;2023-02-28T00:19:00;7.45;;;3.40;;
49962;SDS011;36180;57.678;11.910;2023-02-28T00:21:27;6.63;;;3.33;;
49962;SDS011;36180;57.678;11.910;2023-02-28T00:23:55;6.38;;;3.55;;
49962;SDS011;36180;57.678;11.910;2023-02-28T00:26:23;11.23;;;4.47;;
49962;SDS011;36180;57.678;11.910;2023-02-28T00:28:51;12.50;;;4.22;;
49962;SDS011;36180;57.678;11.910;2023-02-28T00:31:18;7.88;;;4.57;;
49962;SDS011;36180;57.678;11.910;2023-02-28T00:33:47;9.80;;;5.03;;
49962;SDS011;36180;57.678;11.910;2023-02-28T00:36:14;9.57;;;5.30;;
49962;SDS011;36180;57.678;11.910;2023-02-28T00:38:41;10.07;;;4.95;;
49962;SDS011;36180;57.678;11.910;2023-02-28T00:41:08;12.48;;;5.50;;
49962;SDS011;36180;57.678;11.910;2023-02-28T00:43:37;11.95;;;4.97;;
49962;SDS011;36180;57.678;11.910;2023-02-28T00:46:05;8.55;;;4.70;;
49962;SDS011;36180;57.678;11.910;2023-02-28T00:48:33;14.52;;;5.13;;
49962;SDS011;36180;57.678;11.910;2023-02-28T00:51:00;9.05;;;4.88;;
49962;SDS011;36180;57.678;11.910;2023-02-28T00:53:27;10.30;;;4.78;;
49962;SDS011;36180;57.678;11.910;2023-02-28T00:55:56;8.63;;;4.25;;
49962;SDS011;36180;57.678;11.910;2023-02-28T00:58:24;7.60;;;4.30;;
49962;SDS011;36180;57.678;11.910;2023-02-28T01:00:53;5.13;;;3.15;;
49962;SDS011;36180;57.678;11.910;2023-02-28T01:03:20;7.78;;;2.63;;
49962;SDS011;36180;57.678;11.910;2023-02-28T01:05:48;5.97;;;3.05;;
49962;SDS011;36180;57.678;11.910;2023-02-28T01:08:15;5.50;;;3.15;;
49962;SDS011;36180;57.678;11.910;2023-02-28T01:10:43;4.47;;;3.30;;
49962;SDS011;36180;57.678;11.910;2023-02-28T01:13:10;6.15;;;3.00;;
49962;SDS011;36180;57.678;11.910;2023-02-28T01:15:37;3.80;;;2.60;;
49962;SDS011;36180;57.678;11.910;2023-02-28T01:18:06;7.55;;;5.10;;
49962;SDS011;36180;57.678;11.910;2023-02-28T01:20:35;10.10;;;6.65;;
49962;SDS011;36180;57.678;11.910;2023-02-28T01:23:03;6.88;;;4.30;;
49962;SDS011;36180;57.678;11.910;2023-02-28T01:25:30;5.93;;;3.25;;
49962;SDS011;36180;57.678;11.910;2023-02-28T01:27:57;6.05;;;2.80;;
49962;SDS011;36180;57.678;11.910;2023-02-28T01:30:26;6.28;;;2.97;;
49962;SDS011;36180;57.678;11.910;2023-02-28T01:32:53;9.27;;;6.07;;
49962;SDS011;36180;57.678;11.910;2023-02-28T01:35:21;7.10;;;4.20;;
49962;SDS011;36180;57.678;11.910;2023-02-28T01:37:48;7.63;;;3.15;;
49962;SDS011;36180;57.678;11.910;2023-02-28T01:40:16;5.72;;;3.28;;
49962;SDS011;36180;57.678;11.910;2023-02-28T01:42:43;7.25;;;3.35;;
49962;SDS011;36180;57.678;11.910;2023-02-28T01:45:21;5.30;;;3.40;;
49962;SDS011;36180;57.678;11.910;2023-02-28T01:47:51;6.88;;;3.25;;
49962;SDS011;36180;57.678;11.910;2023-02-28T01:50:22;4.30;;;3.17;;
49962;SDS011;36180;57.678;11.910;2023-02-28T01:52:51;5.18;;;3.03;;
49962;SDS011;36180;57.678;11.910;2023-02-28T01:55:20;4.47;;;2.88;;
49962;SDS011;36180;57.678;11.910;2023-02-28T01:57:48;3.58;;;2.50;;
49962;SDS011;36180;57.678;11.910;2023-02-28T02:00:18;7.28;;;2.47;;
49962;SDS011;36180;57.678;11.910;2023-02-28T02:02:51;6.45;;;3.80;;
49962;SDS011;36180;57.678;11.910;2023-02-28T02:05:21;5.50;;;2.97;;
49962;SDS011;36180;57.678;11.910;2023-02-28T02:07:50;4.82;;;2.80;;
49962;SDS011;36180;57.678;11.910;2023-02-28T02:10:20;6.72;;;2.58;;
49962;SDS011;36180;57.678;11.910;2023-02-28T02:12:52;5.47;;;2.35;;
49962;SDS011;36180;57.678;11.910;2023-02-28T02:15:29;3.45;;;1.17;;
49962;SDS011;36180;57.678;11.910;2023-02-28T02:18:01;2.25;;;1.40;;
49962;SDS011;36180;57.678;11.910;2023-02-28T02:20:55;2.08;;;1.23;;
49962;SDS011;36180;57.678;11.910;2023-02-28T02:23:56;3.20;;;1.33;;
49962;SDS011;36180;57.678;11.910;2023-02-28T02:26:52;1.52;;;1.15;;
49962;SDS011;36180;57.678;11.910;2023-02-28T02:35:32;2.78;;;1.48;;
49962;SDS011;36180;57.678;11.910;2023-02-28T02:38:04;4.40;;;1.38;;
49962;SDS011;36180;57.678;11.910;2023-02-28T02:40:36;3.35;;;1.40;;
49962;SDS011;36180;57.678;11.910;2023-02-28T02:43:08;1.75;;;1.48;;
49962;SDS011;36180;57.678;11.910;2023-02-28T02:45:42;4.05;;;1.40;;
49962;SDS011;36180;57.678;11.910;2023-02-28T02:48:14;3.65;;;1.70;;
49962;SDS011;36180;57.678;11.910;2023-02-28T02:50:45;3.63;;;1.80;;
49962;SDS011;36180;57.678;11.910;2023-02-28T02:53:13;2.92;;;1.85;;
49962;SDS011;36180;57.678;11.910;2023-02-28T02:55:44;2.53;;;1.75;;
49962;SDS011;36180;57.678;11.910;2023-02-28T02:58:18;3.45;;;1.80;;
49962;SDS011;36180;57.678;11.910;2023-02-28T03:00:50;2.83;;;1.98;;
49962;SDS011;36180;57.678;11.910;2023-02-28T03:03:20;3.45;;;2.15;;
49962;SDS011;36180;57.678;11.910;2023-02-28T03:05:56;3.65;;;2.35;;
49962;SDS011;36180;57.678;11.910;2023-02-28T03:08:24;3.75;;;2.13;;
49962;SDS011;36180;57.678;11.910;2023-02-28T03:10:52;5.82;;;2.42;;
49962;SDS011;36180;57.678;11.910;2023-02-28T03:13:34;5.43;;;2.53;;
49962;SDS011;36180;57.678;11.910;2023-02-28T03:16:22;2.97;;;2.20;;
49962;SDS011;36180;57.678;11.910;2023-02-28T03:22:11;4.03;;;2.55;;
49962;SDS011;36180;57.678;11.910;2023-02-28T03:24:43;3.38;;;1.83;;
49962;SDS011;36180;57.678;11.910;2023-02-28T03:27:16;4.93;;;2.10;;
49962;SDS011;36180;57.678;11.910;2023-02-28T03:29:47;5.85;;;2.35;;
49962;SDS011;36180;57.678;11.910;2023-02-28T03:32:19;3.80;;;2.33;;
49962;SDS011;36180;57.678;11.910;2023-02-28T03:34:50;3.00;;;2.22;;
49962;SDS011;36180;57.678;11.910;2023-02-28T03:37:23;6.68;;;2.55;;
49962;SDS011;36180;57.678;11.910;2023-02-28T03:39:53;4.45;;;2.88;;
49962;SDS011;36180;57.678;11.910;2023-02-28T03:42:23;6.25;;;3.10;;
49962;SDS011;36180;57.678;11.910;2023-02-28T03:44:54;4.10;;;2.95;;
49962;SDS011;36180;57.678;11.910;2023-02-28T03:47:24;4.25;;;2.80;;
49962;SDS011;36180;57.678;11.910;2023-02-28T03:49:54;7.47;;;3.50;;
49962;SDS011;36180;57.678;11.910;2023-02-28T03:52:27;6.90;;;3.63;;
49962;SDS011;36180;57.678;11.910;2023-02-28T03:54:56;5.38;;;3.55;;
49962;SDS011;36180;57.678;11.910;2023-02-28T03:57:32;6.78;;;3.70;;
49962;SDS011;36180;57.678;11.910;2023-02-28T04:00:04;5.35;;;3.33;;
49962;SDS011;36180;57.678;11.910;2023-02-28T04:02:37;11.30;;;4.18;;
49962;SDS011;36180;57.678;11.910;2023-02-28T04:05:06;6.40;;;3.42;;
49962;SDS011;36180;57.678;11.910;2023-02-28T04:07:35;4.63;;;2.65;;
49962;SDS011;36180;57.678;11.910;2023-02-28T04:10:03;6.25;;;3.42;;
49962;SDS011;36180;57.678;11.910;2023-02-28T04:12:31;5.55;;;3.30;;
49962;SDS011;36180;57.678;11.910;2023-02-28T04:14:58;5.22;;;3.83;;
49962;SDS011;36180;57.678;11.910;2023-02-28T04:17:25;8.43;;;3.88;;
49962;SDS011;36180;57.678;11.910;2023-02-28T04:19:52;8.63;;;4.45;;
49962;SDS011;36180;57.678;11.910;2023-02-28T04:22:22;4.70;;;3.90;;
49962;SDS011;36180;57.678;11.910;2023-02-28T04:24:52;5.05;;;4.15;;
49962;SDS011;36180;57.678;11.910;2023-02-28T04:27:20;5.55;;;3.85;;
49962;SDS011;36180;57.678;11.910;2023-02-28T04:29:47;6.90;;;3.85;;
49962;SDS011;36180;57.678;11.910;2023-02-28T04:32:14;8.23;;;3.15;;
49962;SDS011;36180;57.678;11.910;2023-02-28T04:34:41;4.75;;;2.63;;
49962;SDS011;36180;57.678;11.910;2023-02-28T04:37:08;3.60;;;2.33;;
49962;SDS011;36180;57.678;11.910;2023-02-28T04:39:36;4.63;;;2.45;;
49962;SDS011;36180;57.678;11.910;2023-02-28T04:42:04;4.55;;;2.58;;
49962;SDS011;36180;57.678;11.910;2023-02-28T04:44:32;6.90;;;3.25;;
49962;SDS011;36180;57.678;11.910;2023-02-28T04:46:59;4.97;;;3.80;;
49962;SDS011;36180;57.678;11.910;2023-02-28T04:49:26;7.20;;;4.75;;
49962;SDS011;36180;57.678;11.910;2023-02-28T04:51:53;5.80;;;4.38;;
49962;SDS011;36180;57.678;11.910;2023-02-28T04:54:20;6.72;;;4.93;;
49962;SDS011;36180;57.678;11.910;2023-02-28T04:56:48;8.27;;;5.38;;
49962;SDS011;36180;57.678;11.910;2023-02-28T04:59:17;7.75;;;5.00;;
49962;SDS011;36180;57.678;11.910;2023-02-28T05:01:45;8.10;;;5.75;;
49962;SDS011;36180;57.678;11.910;2023-02-28T05:04:13;7.43;;;5.13;;
49962;SDS011;36180;57.678;11.910;2023-02-28T05:06:40;8.48;;;5.30;;
49962;SDS011;36180;57.678;11.910;2023-02-28T05:09:07;8.68;;;5.60;;
49962;SDS011;36180;57.678;11.910;2023-02-28T05:11:36;9.10;;;6.10;;
49962;SDS011;36180;57.678;11.910;2023-02-28T05:14:05;9.70;;;4.88;;
49962;SDS011;36180;57.678;11.910;2023-02-28T05:16:34;10.32;;;5.20;;
49962;SDS011;36180;57.678;11.910;2023-02-28T05:19:01;7.55;;;5.10;;
49962;SDS011;36180;57.678;11.910;2023-02-28T05:21:29;8.52;;;4.90;;
49962;SDS011;36180;57.678;11.910;2023-02-28T05:23:58;7.65;;;4.15;;
49962;SDS011;36180;57.678;11.910;2023-02-28T05:26:26;6.72;;;4.50;;
49962;SDS011;36180;57.678;11.910;2023-02-28T05:28:54;6.65;;;5.15;;
49962;SDS011;36180;57.678;11.910;2023-02-28T05:31:21;10.48;;;5.57;;
49962;SDS011;36180;57.678;11.910;2023-02-28T05:33:50;7.90;;;4.90;;
49962;SDS011;36180;57.678;11.910;2023-02-28T05:36:17;7.57;;;4.88;;
49962;SDS011;36180;57.678;11.910;2023-02-28T05:38:45;7.65;;;4.80;;
49962;SDS011;36180;57.678;11.910;2023-02-28T05:41:14;7.68;;;4.25;;
49962;SDS011;36180;57.678;11.910;2023-02-28T05:43:41;7.57;;;4.60;;
49962;SDS011;36180;57.678;11.910;2023-02-28T05:46:10;9.02;;;4.63;;
49962;SDS011;36180;57.678;11.910;2023-02-28T05:48:37;7.47;;;4.82;;
49962;SDS011;36180;57.678;11.910;2023-02-28T05:51:07;9.30;;;5.22;;
49962;SDS011;36180;57.678;11.910;2023-02-28T05:53:35;7.68;;;4.75;;
49962;SDS011;36180;57.678;11.910;2023-02-28T05:56:02;7.85;;;4.82;;
49962;SDS011;36180;57.678;11.910;2023-02-28T05:58:30;7.53;;;5.38;;
49962;SDS011;36180;57.678;11.910;2023-02-28T06:00:57;8.93;;;7.30;;
49962;SDS011;36180;57.678;11.910;2023-02-28T06:03:24;11.00;;;7.88;;
49962;SDS011;36180;57.678;11.910;2023-02-28T06:05:51;19.58;;;12.23;;
49962;SDS011;36180;57.678;11.910;2023-02-28T06:08:20;10.70;;;9.25;;
49962;SDS011;36180;57.678;11.910;2023-02-28T06:10:47;9.65;;;6.65;;
49962;SDS011;36180;57.678;11.910;2023-02-28T06:13:14;8.00;;;7.03;;
49962;SDS011;36180;57.678;11.910;2023-02-28T06:15:41;7.05;;;4.53;;
49962;SDS011;36180;57.678;11.910;2023-02-28T06:18:08;7.00;;;4.38;;
49962;SDS011;36180;57.678;11.910;2023-02-28T06:20:36;5.68;;;3.40;;
49962;SDS011;36180;57.678;11.910;2023-02-28T06:23:03;5.15;;;3.88;;
49962;SDS011;36180;57.678;11.910;2023-02-28T06:25:31;7.97;;;4.85;;
49962;SDS011;36180;57.678;11.910;2023-02-28T06:27:58;6.25;;;4.65;;
49962;SDS011;36180;57.678;11.910;2023-02-28T06:30:26;7.82;;;4.80;;
49962;SDS011;36180;57.678;11.910;2023-02-28T06:32:56;7.95;;;4.50;;
49962;SDS011;36180;57.678;11.910;2023-02-28T06:35:23;6.30;;;4.88;;
49962;SDS011;36180;57.678;11.910;2023-02-28T06:37:50;8.20;;;4.15;;
49962;SDS011;36180;57.678;11.910;2023-02-28T06:40:17;8.93;;;5.13;;
49962;SDS011;36180;57.678;11.910;2023-02-28T06:42:45;7.68;;;4.50;;
49962;SDS011;36180;57.678;11.910;2023-02-28T06:45:13;9.05;;;5.03;;
49962;SDS011;36180;57.678;11.910;2023-02-28T06:47:40;8.27;;;4.95;;
49962;SDS011;36180;57.678;11.910;2023-02-28T06:50:10;7.00;;;4.60;;
49962;SDS011;36180;57.678;11.910;2023-02-28T06:52:38;7.60;;;5.22;;
49962;SDS011;36180;57.678;11.910;2023-02-28T06:55:06;7.32;;;4.82;;
49962;SDS011;36180;57.678;11.910;2023-02-28T06:57:34;9.68;;;5.38;;
49962;SDS011;36180;57.678;11.910;2023-02-28T07:00:04;11.60;;;6.60;;
49962;SDS011;36180;57.678;11.910;2023-02-28T07:02:33;22.17;;;8.45;;
49962;SDS011;36180;57.678;11.910;2023-02-28T07:05:00;34.88;;;10.05;;
49962;SDS011;36180;57.678;11.910;2023-02-28T07:07:28;62.53;;;11.00;;
49962;SDS011;36180;57.678;11.910;2023-02-28T07:09:55;90.63;;;11.73;;
49962;SDS011;36180;57.678;11.910;2023-02-28T07:12:22;86.57;;;10.70;;
49962;SDS011;36180;57.678;11.910;2023-02-28T07:14:49;100.43;;;10.80;;
49962;SDS011;36180;57.678;11.910;2023-02-28T07:17:17;98.40;;;11.82;;
49962;SDS011;36180;57.678;11.910;2023-02-28T07:19:44;92.78;;;11.30;;
49962;SDS011;36180;57.678;11.910;2023-02-28T07:22:11;92.55;;;12.70;;
49962;SDS011;36180;57.678;11.910;2023-02-28T07:24:39;80.80;;;12.50;;
49962;SDS011;36180;57.678;11.910;2023-02-28T07:27:06;56.42;;;11.93;;
49962;SDS011;36180;57.678;11.910;2023-02-28T07:29:33;80.70;;;14.25;;
49962;SDS011;36180;57.678;11.910;2023-02-28T07:32:00;80.53;;;12.32;;
49962;SDS011;36180;57.678;11.910;2023-02-28T07:34:28;73.85;;;13.23;;
49962;SDS011;36180;57.678;11.910;2023-02-28T07:36:56;127.82;;;15.65;;
49962;SDS011;36180;57.678;11.910;2023-02-28T07:39:23;90.30;;;15.05;;
49962;SDS011;36180;57.678;11.910;2023-02-28T07:41:50;94.57;;;15.85;;
49962;SDS011;36180;57.678;11.910;2023-02-28T07:44:17;128.93;;;15.40;;
49962;SDS011;36180;57.678;11.910;2023-02-28T07:46:44;135.93;;;15.85;;
49962;SDS011;36180;57.678;11.910;2023-02-28T07:49:11;148.15;;;15.20;;
49962;SDS011;36180;57.678;11.910;2023-02-28T07:51:40;95.95;;;13.98;;
49962;SDS011;36180;57.678;11.910;2023-02-28T07:54:07;125.20;;;13.90;;
49962;SDS011;36180;57.678;11.910;2023-02-28T07:56:34;117.93;;;14.63;;
49962;SDS011;36180;57.678;11.910;2023-02-28T07:59:01;76.63;;;10.30;;
49962;SDS011;36180;57.678;11.910;2023-02-28T08:01:28;98.75;;;10.68;;
49962;SDS011;36180;57.678;11.910;2023-02-28T08:03:55;75.82;;;10.77;;
49962;SDS011;36180;57.678;11.910;2023-02-28T08:06:23;84.55;;;10.93;;
49962;SDS011;36180;57.678;11.910;2023-02-28T08:08:52;63.90;;;11.32;;
49962;SDS011;36180;57.678;11.910;2023-02-28T08:11:21;83.57;;;10.18;;
49962;SDS011;36180;57.678;11.910;2023-02-28T08:13:48;104.40;;;11.00;;
49962;SDS011;36180;57.678;11.910;2023-02-28T08:16:16;68.72;;;10.30;;
49962;SDS011;36180;57.678;11.910;2023-02-28T08:18:47;137.52;;;10.75;;
49962;SDS011;36180;57.678;11.910;2023-02-28T08:21:14;109.97;;;9.35;;
49962;SDS011;36180;57.678;11.910;2023-02-28T08:23:41;66.03;;;8.30;;
49962;SDS011;36180;57.678;11.910;2023-02-28T08:26:10;54.70;;;7.95;;
49962;SDS011;36180;57.678;11.910;2023-02-28T08:28:37;82.97;;;8.70;;
49962;SDS011;36180;57.678;11.910;2023-02-28T08:31:07;65.88;;;8.40;;
49962;SDS011;36180;57.678;11.910;2023-02-28T08:33:35;85.50;;;9.65;;
49962;SDS011;36180;57.678;11.910;2023-02-28T08:36:02;53.28;;;8.02;;
49962;SDS011;36180;57.678;11.910;2023-02-28T08:38:29;75.30;;;9.32;;
49962;SDS011;36180;57.678;11.910;2023-02-28T08:40:57;65.53;;;8.98;;
49962;SDS011;36180;57.678;11.910;2023-02-28T08:43:26;109.97;;;10.00;;
49962;SDS011;36180;57.678;11.910;2023-02-28T08:45:53;38.08;;;7.75;;
49962;SDS011;36180;57.678;11.910;2023-02-28T08:48:21;145.63;;;10.30;;
49962;SDS011;36180;57.678;11.910;2023-02-28T08:50:54;136.98;;;10.48;;
49962;SDS011;36180;57.678;11.910;2023-02-28T08:53:22;129.73;;;10.23;;
49962;SDS011;36180;57.678;11.910;2023-02-28T08:55:55;68.38;;;9.13;;
49962;SDS011;36180;57.678;11.910;2023-02-28T08:58:33;67.95;;;8.45;;
49962;SDS011;36180;57.678;11.910;2023-02-28T09:01:07;72.47;;;8.95;;
49962;SDS011;36180;57.678;11.910;2023-02-28T09:03:37;54.70;;;8.85;;
49962;SDS011;36180;57.678;11.910;2023-02-28T09:06:06;63.88;;;9.25;;
49962;SDS011;36180;57.678;11.910;2023-02-28T09:08:33;52.05;;;8.10;;
49962;SDS011;36180;57.678;11.910;2023-02-28T09:11:01;65.18;;;7.10;;
49962;SDS011;36180;57.678;11.910;2023-02-28T09:13:28;68.38;;;7.68;;
49962;SDS011;36180;57.678;11.910;2023-02-28T09:15:57;59.45;;;7.65;;
49962;SDS011;36180;57.678;11.910;2023-02-28T09:18:25;44.03;;;6.63;;
49962;SDS011;36180;57.678;11.910;2023-02-28T09:20:53;60.70;;;7.57;;
49962;SDS011;36180;57.678;11.910;2023-02-28T09:23:21;58.08;;;7.10;;
49962;SDS011;36180;57.678;11.910;2023-02-28T09:25:49;43.25;;;8.43;;
49962;SDS011;36180;57.678;11.910;2023-02-28T09:28:18;73.65;;;8.43;;
49962;SDS011;36180;57.678;11.910;2023-02-28T09:30:48;39.25;;;7.63;;
49962;SDS011;36180;57.678;11.910;2023-02-28T09:33:16;53.85;;;8.13;;
49962;SDS011;36180;57.678;11.910;2023-02-28T09:35:46;48.03;;;8.80;;
49962;SDS011;36180;57.678;11.910;2023-02-28T09:38:13;114.30;;;9.60;;
49962;SDS011;36180;57.678;11.910;2023-02-28T09:40:44;59.45;;;9.40;;
49962;SDS011;36180;57.678;11.910;2023-02-28T09:43:14;58.35;;;8.73;;
49962;SDS011;36180;57.678;11.910;2023-02-28T09:45:43;156.77;;;10.73;;
49962;SDS011;36180;57.678;11.910;2023-02-28T09:48:17;43.80;;;8.27;;
49962;SDS011;36180;57.678;11.910;2023-02-28T09:50:48;30.45;;;8.63;;
49962;SDS011;36180;57.678;11.910;2023-02-28T09:53:18;25.77;;;10.13;;
49962;SDS011;36180;57.678;11.910;2023-02-28T09:55:48;18.00;;;7.22;;
49962;SDS011;36180;57.678;11.910;2023-02-28T09:58:18;133.73;;;10.23;;
49962;SDS011;36180;57.678;11.910;2023-02-28T10:00:54;93.30;;;8.93;;
49962;SDS011;36180;57.678;11.910;2023-02-28T10:03:25;49.20;;;8.63;;
49962;SDS011;36180;57.678;11.910;2023-02-28T10:08:29;53.25;;;8.93;;
49962;SDS011;36180;57.678;11.910;2023-02-28T10:11:00;69.40;;;8.25;;
49962;SDS011;36180;57.678;11.910;2023-02-28T10:13:32;28.70;;;6.63;;
49962;SDS011;36180;57.678;11.910;2023-02-28T10:16:03;34.33;;;7.47;;
49962;SDS011;36180;57.678;11.910;2023-02-28T10:18:39;89.95;;;8.43;;
49962;SDS011;36180;57.678;11.910;2023-02-28T10:21:10;90.65;;;8.73;;
49962;SDS011;36180;57.678;11.910;2023-02-28T10:23:43;23.38;;;7.22;;
49962;SDS011;36180;57.678;11.910;2023-02-28T10:26:13;27.42;;;7.40;;
49962;SDS011;36180;57.678;11.910;2023-02-28T10:28:42;29.67;;;8.50;;
49962;SDS011;36180;57.678;11.910;2023-02-28T10:31:11;14.65;;;7.55;;
49962;SDS011;36180;57.678;11.910;2023-02-28T10:33:41;34.80;;;7.60;;
49962;SDS011;36180;57.678;11.910;2023-02-28T10:36:10;31.23;;;8.30;;
49962;SDS011;36180;57.678;11.910;2023-02-28T10:38:41;14.35;;;7.75;;
49962;SDS011;36180;57.678;11.910;2023-02-28T10:41:10;20.60;;;7.78;;
49962;SDS011;36180;57.678;11.910;2023-02-28T10:43:39;83.03;;;9.43;;
49962;SDS011;36180;57.678;11.910;2023-02-28T10:46:13;76.63;;;8.80;;
49962;SDS011;36180;57.678;11.910;2023-02-28T10:48:59;50.17;;;9.00;;
49962;SDS011;36180;57.678;11.910;2023-02-28T10:51:34;29.33;;;8.70;;
49962;SDS011;36180;57.678;11.910;2023-02-28T10:54:03;15.27;;;7.70;;
49962;SDS011;36180;57.678;11.910;2023-02-28T10:56:31;48.17;;;9.40;;
49962;SDS011;36180;57.678;11.910;2023-02-28T10:58:59;13.88;;;8.25;;
49962;SDS011;36180;57.678;11.910;2023-02-28T11:01:36;15.70;;;8.60;;
49962;SDS011;36180;57.678;11.910;2023-02-28T11:04:16;13.93;;;7.90;;
49962;SDS011;36180;57.678;11.910;2023-02-28T11:06:45;16.52;;;8.93;;
49962;SDS011;36180;57.678;11.910;2023-02-28T11:09:18;14.15;;;7.63;;
49962;SDS011;36180;57.678;11.910;2023-02-28T11:11:48;13.13;;;7.88;;
49962;SDS011;36180;57.678;11.910;2023-02-28T11:14:17;13.75;;;8.23;;
49962;SDS011;36180;57.678;11.910;2023-02-28T11:16:48;14.90;;;8.88;;
49962;SDS011;36180;57.678;11.910;2023-02-28T11:19:17;13.80;;;8.30;;
49962;SDS011;36180;57.678;11.910;2023-02-28T11:21:48;10.77;;;7.60;;
49962;SDS011;36180;57.678;11.910;2023-02-28T11:24:21;11.10;;;7.60;;
49962;SDS011;36180;57.678;11.910;2023-02-28T11:26:50;11.32;;;7.10;;
49962;SDS011;36180;57.678;11.910;2023-02-28T11:29:20;11.05;;;7.22;;
49962;SDS011;36180;57.678;11.910;2023-02-28T11:32:02;14.05;;;7.38;;
49962;SDS011;36180;57.678;11.910;2023-02-28T11:34:38;11.02;;;6.97;;
49962;SDS011;36180;57.678;11.910;2023-02-28T11:37:09;11.40;;;6.68;;
49962;SDS011;36180;57.678;11.910;2023-02-28T11:45:11;15.02;;;6.22;;
49962;SDS011;36180;57.678;11.910;2023-02-28T11:47:47;10.85;;;5.93;;
49962;SDS011;36180;57.678;11.910;2023-02-28T11:50:25;12.07;;;5.32;;
49962;SDS011;36180;57.678;11.910;2023-02-28T11:53:00;8.13;;;5.50;;
49962;SDS011;36180;57.678;11.910;2023-02-28T11:55:30;9.90;;;5.15;;
49962;SDS011;36180;57.678;11.910;2023-02-28T12:01:14;9.30;;;5.78;;
49962;SDS011;36180;57.678;11.910;2023-02-28T12:04:01;8.30;;;5.20;;
49962;SDS011;36180;57.678;11.910;2023-02-28T12:06:36;7.65;;;5.30;;
49962;SDS011;36180;57.678;11.910;2023-02-28T12:09:13;10.00;;;5.15;;
49962;SDS011;36180;57.678;11.910;2023-02-28T12:11:51;9.02;;;4.90;;
49962;SDS011;36180;57.678;11.910;2023-02-28T12:17:16;10.15;;;5.32;;
49962;SDS011;36180;57.678;11.910;2023-02-28T12:19:54;7.38;;;4.60;;
49962;SDS011;36180;57.678;11.910;2023-02-28T12:22:28;10.35;;;5.10;;
49962;SDS011;36180;57.678;11.910;2023-02-28T12:27:48;6.05;;;4.18;;
49962;SDS011;36180;57.678;11.910;2023-02-28T12:30:19;4.82;;;3.78;;
49962;SDS011;36180;57.678;11.910;2023-02-28T12:32:49;6.47;;;3.83;;
49962;SDS011;36180;57.678;11.910;2023-02-28T12:35:21;4.45;;;3.25;;
49962;SDS011;36180;57.678;11.910;2023-02-28T12:37:51;5.65;;;3.42;;
49962;SDS011;36180;57.678;11.910;2023-02-28T12:40:23;7.03;;;3.65;;
49962;SDS011;36180;57.678;11.910;2023-02-28T12:42:52;4.30;;;3.08;;
49962;SDS011;36180;57.678;11.910;2023-02-28T12:45:24;6.97;;;3.75;;
49962;SDS011;36180;57.678;11.910;2023-02-28T12:47:55;8.98;;;3.92;;
49962;SDS011;36180;57.678;11.910;2023-02-28T12:50:26;4.82;;;3.15;;
49962;SDS011;36180;57.678;11.910;2023-02-28T12:52:56;7.10;;;3.35;;
49962;SDS011;36180;57.678;11.910;2023-02-28T12:55:27;5.88;;;3.58;;
49962;SDS011;36180;57.678;11.910;2023-02-28T12:58:00;6.63;;;3.90;;
49962;SDS011;36180;57.678;11.910;2023-02-28T13:00:33;6.18;;;3.53;;
49962;SDS011;36180;57.678;11.910;2023-02-28T13:06:13;5.60;;;3.45;;
49962;SDS011;36180;57.678;11.910;2023-02-28T13:08:59;9.93;;;4.07;;
49962;SDS011;36180;57.678;11.910;2023-02-28T13:11:30;6.72;;;3.70;;
49962;SDS011;36180;57.678;11.910;2023-02-28T13:13:59;7.38;;;3.45;;
49962;SDS011;36180;57.678;11.910;2023-02-28T13:16:28;8.75;;;3.58;;
49962;SDS011;36180;57.678;11.910;2023-02-28T13:19:09;4.90;;;3.22;;
49962;SDS011;36180;57.678;11.910;2023-02-28T13:21:47;6.28;;;3.30;;
49962;SDS011;36180;57.678;11.910;2023-02-28T13:27:11;7.45;;;3.85;;
49962;SDS011;36180;57.678;11.910;2023-02-28T13:29:57;7.53;;;3.78;;
49962;SDS011;36180;57.678;11.910;2023-02-28T13:32:31;8.15;;;3.95;;
49962;SDS011;36180;57.678;11.910;2023-02-28T13:38:25;5.30;;;3.30;;
49962;SDS011;36180;57.678;11.910;2023-02-28T13:44:11;3.88;;;3.03;;
49962;SDS011;36180;57.678;11.910;2023-02-28T13:49:43;6.60;;;3.40;;
49962;SDS011;36180;57.678;11.910;2023-02-28T13:52:12;5.18;;;3.72;;
49962;SDS011;36180;57.678;11.910;2023-02-28T13:57:44;4.40;;;3.47;;
49962;SDS011;36180;57.678;11.910;2023-02-28T14:00:23;4.15;;;2.95;;
49962;SDS011;36180;57.678;11.910;2023-02-28T14:06:09;3.72;;;2.63;;
49962;SDS011;36180;57.678;11.910;2023-02-28T14:08:45;3.72;;;2.90;;
49962;SDS011;36180;57.678;11.910;2023-02-28T14:11:26;5.93;;;2.78;;
49962;SDS011;36180;57.678;11.910;2023-02-28T14:13:55;4.00;;;2.40;;
49962;SDS011;36180;57.678;11.910;2023-02-28T14:16:23;4.65;;;2.63;;
49962;SDS011;36180;57.678;11.910;2023-02-28T14:18:55;5.15;;;2.75;;
49962;SDS011;36180;57.678;11.910;2023-02-28T14:21:25;2.95;;;2.33;;
49962;SDS011;36180;57.678;11.910;2023-02-28T14:24:13;4.18;;;2.40;;
49962;SDS011;36180;57.678;11.910;2023-02-28T14:26:55;5.65;;;2.53;;
49962;SDS011;36180;57.678;11.910;2023-02-28T14:29:52;7.82;;;1.98;;
49962;SDS011;36180;57.678;11.910;2023-02-28T14:32:44;3.20;;;2.28;;
49962;SDS011;36180;57.678;11.910;2023-02-28T14:35:18;6.78;;;2.28;;
49962;SDS011;36180;57.678;11.910;2023-02-28T14:37:49;4.00;;;2.42;;
49962;SDS011;36180;57.678;11.910;2023-02-28T14:40:16;4.78;;;2.10;;
49962;SDS011;36180;57.678;11.910;2023-02-28T14:42:49;5.47;;;2.28;;
49962;SDS011;36180;57.678;11.910;2023-02-28T14:45:22;4.97;;;2.40;;
49962;SDS011;36180;57.678;11.910;2023-02-28T14:47:49;6.75;;;2.55;;
49962;SDS011;36180;57.678;11.910;2023-02-28T14:50:18;3.15;;;2.22;;
49962;SDS011;36180;57.678;11.910;2023-02-28T14:52:46;2.85;;;2.35;;
49962;SDS011;36180;57.678;11.910;2023-02-28T14:55:14;3.55;;;2.25;;
49962;SDS011;36180;57.678;11.910;2023-02-28T14:57:51;5.35;;;2.50;;
49962;SDS011;36180;57.678;11.910;2023-02-28T15:00:22;4.40;;;2.80;;
49962;SDS011;36180;57.678;11.910;2023-02-28T15:02:51;4.50;;;2.78;;
49962;SDS011;36180;57.678;11.910;2023-02-28T15:05:28;5.00;;;2.78;;
49962;SDS011;36180;57.678;11.910;2023-02-28T15:08:04;4.88;;;3.35;;
49962;SDS011;36180;57.678;11.910;2023-02-28T15:10:33;3.38;;;2.97;;
49962;SDS011;36180;57.678;11.910;2023-02-28T15:13:04;4.80;;;3.20;;
49962;SDS011;36180;57.678;11.910;2023-02-28T15:15:35;5.53;;;3.38;;
49962;SDS011;36180;57.678;11.910;2023-02-28T15:18:10;3.78;;;2.70;;
49962;SDS011;36180;57.678;11.910;2023-02-28T15:20:47;3.22;;;2.60;;
49962;SDS011;36180;57.678;11.910;2023-02-28T15:23:14;3.22;;;2.53;;
49962;SDS011;36180;57.678;11.910;2023-02-28T15:25:42;3.53;;;2.88;;
49962;SDS011;36180;57.678;11.910;2023-02-28T15:28:14;4.78;;;3.00;;
49962;SDS011;36180;57.678;11.910;2023-02-28T15:30:50;5.32;;;2.75;;
49962;SDS011;36180;57.678;11.910;2023-02-28T15:33:20;5.13;;;2.72;;
49962;SDS011;36180;57.678;11.910;2023-02-28T15:35:49;3.50;;;2.80;;